Time;durP1;ratioP1;P1;durP2;ratioP2;P2;SDS_P1;SDS_P2;PMS_P1;PMS_P2;Temp;Humidity;BMP_temperature;BMP_pressure;BME280_temperature;BME280_humidity;BME280_pressure;Samples;Min_cycle;Max_cycle;Signal;HPM_P1;HPM_P2
2023/06/30 00:00:25;;;;;;;;;;;;;;;25.37;50.09;100475.64;2326464;76;50675;-75
2023/06/30 00:03:27;;;;;;;;;;;;;;;25.38;50.06;100475.11;2281363;76;51129;-76
2023/06/30 00:06:29;;;;;;;;;;;;;;;25.38;50.09;100469.19;2326420;76;50094;-76
2023/06/30 00:09:31;;;;;;;;;;;;;;;25.38;50.10;100471.89;2326656;76;51448;-76
2023/06/30 00:12:32;;;;;;;;;;;;;;;25.37;50.32;100471.58;2326623;76;51503;-76
2023/06/30 00:15:34;;;;;;;;;;;;;;;25.38;50.26;100473.25;2326792;76;51355;-75
2023/06/30 00:18:36;;;;;;;;;;;;;;;25.39;50.29;100469.47;2310746;75;50247;-76
2023/06/30 00:21:41;;;;;;;;;;;;;;;25.39;50.35;100470.83;2349965;75;50356;-76
2023/06/30 00:24:41;;;;;;;;;;;;;;;25.41;50.50;100472.78;2355918;74;22527;-76
2023/06/30 00:27:43;;;;;;;;;;;;;;;25.41;50.52;100470.07;2275225;76;49629;-76
2023/06/30 00:30:45;;;;;;;;;;;;;;;25.37;50.87;100464.81;2324533;76;50576;-76
2023/06/30 00:33:46;;;;;;;;;;;;;;;25.38;50.84;100466.48;2295733;76;51452;-75
2023/06/30 00:36:48;;;;;;;;;;;;;;;25.40;50.78;100467.05;2295561;76;50569;-75
2023/06/30 00:39:49;;;;;;;;;;;;;;;25.39;50.82;100459.17;2296888;76;52340;-76
2023/06/30 00:42:51;;;;;;;;;;;;;;;25.39;50.94;100461.88;2296108;76;53320;-75
2023/06/30 00:45:52;;;;;;;;;;;;;;;25.39;51.08;100465.95;2295843;76;51351;-77
2023/06/30 00:48:54;;;;;;;;;;;;;;;25.38;51.09;100465.13;2323762;75;51359;-76
2023/06/30 00:51:56;;;;;;;;;;;;;;;25.38;51.23;100450.23;2296756;76;51163;-77
2023/06/30 00:54:58;;;;;;;;;;;;;;;25.38;51.23;100452.94;2318938;75;51478;-76
2023/06/30 00:57:59;;;;;;;;;;;;;;;25.41;51.29;100457.06;2318685;76;51387;-76
2023/06/30 01:01:06;;;;;;;;;;;;;;;25.39;51.24;100449.16;2297009;76;51356;-76
2023/06/30 01:04:12;;;;;;;;;;;;;;;25.39;51.37;100453.22;2318979;76;51441;-74
2023/06/30 01:07:18;;;;;;;;;;;;;;;25.39;51.45;100454.57;2318826;76;50429;-74
2023/06/30 01:10:22;;;;;;;;;;;;;;;25.40;51.40;100460.81;2319211;75;51325;-73
2023/06/30 01:13:23;;;;;;;;;;;;;;;25.42;51.31;100458.70;2317673;76;51399;-73
2023/06/30 01:16:26;;;;;;;;;;;;;;;25.41;51.23;100452.47;2296667;76;52315;-73
2023/06/30 01:19:28;;;;;;;;;;;;;;;25.41;51.38;100453.81;2341108;74;50650;-73
2023/06/30 01:22:31;;;;;;;;;;;;;;;25.40;51.43;100444.56;2340914;75;51563;-73
2023/06/30 01:25:33;;;;;;;;;;;;;;;25.38;51.59;100448.88;2337257;76;50605;-74
2023/06/30 01:28:35;;;;;;;;;;;;;;;25.37;51.58;100443.14;2337071;76;49761;-74
2023/06/30 01:31:36;;;;;;;;;;;;;;;25.38;51.45;100428.55;2330186;75;50228;-73
2023/06/30 01:34:38;;;;;;;;;;;;;;;25.39;51.53;100434.80;2320794;75;50577;-73
2023/06/30 01:37:39;;;;;;;;;;;;;;;25.39;51.40;100435.61;2353434;74;51473;-74
2023/06/30 01:40:41;;;;;;;;;;;;;;;25.41;51.42;100439.45;2321376;75;51671;-74
2023/06/30 01:43:43;;;;;;;;;;;;;;;25.40;51.44;100443.20;2350290;74;51394;-74
2023/06/30 01:46:44;;;;;;;;;;;;;;;25.39;51.43;100435.61;2350259;74;50681;-74
2023/06/30 01:49:46;;;;;;;;;;;;;;;25.39;51.49;100437.50;2334820;75;50392;-74
2023/06/30 01:52:47;;;;;;;;;;;;;;;25.40;51.43;100429.66;2313001;76;51099;-74
2023/06/30 01:55:49;;;;;;;;;;;;;;;25.40;51.33;100438.60;2340626;75;50804;-74
2023/06/30 01:58:50;;;;;;;;;;;;;;;25.39;51.57;100438.86;2338438;75;49889;-74
2023/06/30 02:01:52;;;;;;;;;;;;;;;25.38;51.60;100435.33;2309061;76;50508;-74
2023/06/30 02:04:54;;;;;;;;;;;;;;;25.39;51.58;100434.80;2283940;75;49533;-74
2023/06/30 02:07:55;;;;;;;;;;;;;;;25.40;51.46;100433.72;2311067;76;50251;-74
2023/06/30 02:10:57;;;;;;;;;;;;;;;25.40;51.49;100428.30;2341372;75;50574;-74
2023/06/30 02:13:58;;;;;;;;;;;;;;;25.39;51.49;100432.09;2338600;76;51365;-74
2023/06/30 02:17:00;;;;;;;;;;;;;;;25.40;51.62;100433.19;2308314;75;52477;-74
2023/06/30 02:20:06;;;;;;;;;;;;;;;25.39;51.63;100424.78;2349874;75;51363;-74
2023/06/30 02:23:05;;;;;;;;;;;;;;;25.38;51.63;100429.91;2353247;75;22967;-74
2023/06/30 02:26:06;;;;;;;;;;;;;;;25.40;51.42;100423.70;2353992;75;50155;-74
2023/06/30 02:29:08;;;;;;;;;;;;;;;25.44;51.46;100421.91;2295504;75;50792;-75
2023/06/30 02:32:10;;;;;;;;;;;;;;;25.42;51.33;100422.12;2341326;75;50684;-74
2023/06/30 02:35:12;;;;;;;;;;;;;;;25.45;51.27;100423.55;2325925;76;50187;-74
2023/06/30 02:38:14;;;;;;;;;;;;;;;25.47;51.23;100426.85;2325539;76;52375;-74
2023/06/30 02:41:15;;;;;;;;;;;;;;;25.45;51.37;100423.02;2294357;76;52727;-74
2023/06/30 02:44:17;;;;;;;;;;;;;;;25.42;51.46;100423.48;2294304;76;51481;-74
2023/06/30 02:47:18;;;;;;;;;;;;;;;25.41;51.51;100429.98;2325651;76;50581;-74
2023/06/30 02:50:22;;;;;;;;;;;;;;;25.41;51.40;100426.73;2288953;76;51402;-74
2023/06/30 02:53:23;;;;;;;;;;;;;;;25.41;51.55;100421.84;2291337;76;50969;-74
2023/06/30 02:56:25;;;;;;;;;;;;;;;25.43;51.32;100423.77;2293970;76;51405;-74
2023/06/30 02:59:26;;;;;;;;;;;;;;;25.41;51.50;100416.43;2325868;76;51410;-73
2023/06/30 03:02:28;;;;;;;;;;;;;;;25.40;51.54;100412.88;2294559;76;50289;-74
2023/06/30 03:05:30;;;;;;;;;;;;;;;25.41;51.56;100409.13;2325891;76;51516;-73
2023/06/30 03:08:31;;;;;;;;;;;;;;;25.45;51.29;100414.06;2294072;76;51417;-73
2023/06/30 03:11:33;;;;;;;;;;;;;;;25.46;51.27;100413.00;2294448;76;51461;-74
2023/06/30 03:14:35;;;;;;;;;;;;;;;25.44;51.53;100405.66;2325865;76;51240;-75
2023/06/30 03:17:36;;;;;;;;;;;;;;;25.41;51.45;100412.37;2268993;76;52518;-74
2023/06/30 03:20:38;;;;;;;;;;;;;;;25.44;51.41;100411.89;2317850;76;50713;-74
2023/06/30 03:23:41;;;;;;;;;;;;;;;25.45;51.38;100402.70;2288830;77;51435;-74
2023/06/30 03:26:43;;;;;;;;;;;;;;;25.44;51.29;100401.06;2288775;77;50327;-74
2023/06/30 03:29:44;;;;;;;;;;;;;;;25.45;51.31;100395.10;2258353;77;51116;-73
2023/06/30 03:32:46;;;;;;;;;;;;;;;25.42;51.35;100386.92;2292792;77;50683;-73
2023/06/30 03:35:49;;;;;;;;;;;;;;;25.40;51.61;100391.20;2296655;76;50578;-73
2023/06/30 03:38:51;;;;;;;;;;;;;;;25.41;51.51;100380.69;2296483;77;51496;-74
2023/06/30 03:41:52;;;;;;;;;;;;;;;25.45;51.63;100382.38;2272993;77;49455;-74
2023/06/30 03:44:54;;;;;;;;;;;;;;;25.46;51.56;100384.55;2272782;77;50475;-74
2023/06/30 03:47:55;;;;;;;;;;;;;;;25.43;51.64;100392.62;2296477;77;50163;-74
2023/06/30 03:50:57;;;;;;;;;;;;;;;25.41;51.73;100394.22;2338426;75;50558;-73
2023/06/30 03:53:59;;;;;;;;;;;;;;;25.42;51.79;100395.86;2326989;76;51138;-73
2023/06/30 03:57:00;;;;;;;;;;;;;;;25.40;51.93;100388.50;2326740;76;50571;-74
2023/06/30 04:00:04;;;;;;;;;;;;;;;25.39;51.81;100389.56;2327288;76;51490;-74
2023/06/30 04:03:05;;;;;;;;;;;;;;;25.36;51.94;100387.33;2327358;76;51253;-74
2023/06/30 04:06:07;;;;;;;;;;;;;;;25.38;51.84;100378.45;2327049;76;51606;-75
2023/06/30 04:09:09;;;;;;;;;;;;;;;25.39;51.82;100384.15;2327039;76;51275;-73
2023/06/30 04:12:10;;;;;;;;;;;;;;;25.37;51.94;100388.97;2327031;75;50582;-74
2023/06/30 04:15:12;;;;;;;;;;;;;;;25.40;52.07;100391.20;2327120;76;50342;-74
2023/06/30 04:18:13;;;;;;;;;;;;;;;25.41;51.97;100390.16;2323212;75;51441;-74
2023/06/30 04:21:17;;;;;;;;;;;;;;;25.40;52.03;100383.08;2334506;75;50663;-74
2023/06/30 04:24:19;;;;;;;;;;;;;;;25.41;51.97;100383.92;2333857;76;51493;-74
2023/06/30 04:27:21;;;;;;;;;;;;;;;25.46;51.90;100394.03;2333814;75;51469;-75
2023/06/30 04:30:22;;;;;;;;;;;;;;;25.46;51.79;100390.81;2309442;76;52099;-75
2023/06/30 04:33:24;;;;;;;;;;;;;;;25.44;51.80;100390.76;2302666;76;51497;-74
2023/06/30 04:36:29;;;;;;;;;;;;;;;25.46;51.90;100379.13;2325781;76;51504;-76
2023/06/30 04:39:29;;;;;;;;;;;;;;;25.45;51.80;100372.90;2326074;76;23250;-76
2023/06/30 04:42:32;;;;;;;;;;;;;;;25.43;51.96;100364.17;2294882;76;50152;-76
2023/06/30 04:45:33;;;;;;;;;;;;;;;25.42;52.25;100367.42;2295183;76;51506;-75
2023/06/30 04:48:35;;;;;;;;;;;;;;;25.40;52.39;100357.34;2285062;76;51407;-76
2023/06/30 04:51:37;;;;;;;;;;;;;;;25.44;52.39;100350.13;2314088;76;51545;-76
2023/06/30 04:54:38;;;;;;;;;;;;;;;25.41;52.58;100352.23;2269226;76;51608;-76
2023/06/30 04:57:40;;;;;;;;;;;;;;;25.45;52.51;100351.77;2325808;76;51465;-75
2023/06/30 05:00:43;;;;;;;;;;;;;;;25.52;52.32;100361.42;2326282;76;51374;-74
2023/06/30 05:03:44;;;;;;;;;;;;;;;25.58;52.45;100365.06;2296865;76;50232;-75
2023/06/30 05:06:46;;;;;;;;;;;;;;;25.63;52.66;100354.34;2271067;76;51534;-75
2023/06/30 05:09:47;;;;;;;;;;;;;;;25.63;53.06;100359.22;2296471;76;51421;-76
2023/06/30 05:12:50;;;;;;;;;;;;;;;25.66;52.98;100344.91;2328326;76;51403;-74
2023/06/30 05:15:51;;;;;;;;;;;;;;;25.68;53.25;100348.21;2287462;76;50462;-76
2023/06/30 05:18:53;;;;;;;;;;;;;;;25.67;53.34;100352.81;2261462;76;51406;-76
2023/06/30 05:21:54;;;;;;;;;;;;;;;25.60;53.74;100352.92;2318246;76;51392;-74
2023/06/30 05:24:56;;;;;;;;;;;;;;;25.61;53.32;100343.75;2290074;76;51482;-74
2023/06/30 05:27:57;;;;;;;;;;;;;;;25.68;53.78;100330.59;2290485;76;51466;-75
2023/06/30 05:30:59;;;;;;;;;;;;;;;25.74;53.41;100332.34;2263042;76;51223;-74
2023/06/30 05:34:01;;;;;;;;;;;;;;;25.81;53.02;100345.24;2333771;75;50345;-75
2023/06/30 05:37:03;;;;;;;;;;;;;;;25.82;53.08;100347.72;2334155;75;51486;-75
2023/06/30 05:40:05;;;;;;;;;;;;;;;25.84;53.19;100348.82;2327595;75;51871;-74
2023/06/30 05:43:07;;;;;;;;;;;;;;;25.85;53.16;100350.52;2325712;76;52319;-73
2023/06/30 05:46:08;;;;;;;;;;;;;;;25.84;53.56;100351.53;2326956;76;50015;-73
2023/06/30 05:49:10;;;;;;;;;;;;;;;25.83;53.66;100344.48;2331520;74;50233;-75
2023/06/30 05:52:11;;;;;;;;;;;;;;;25.83;53.68;100344.48;2356725;75;50348;-74
2023/06/30 05:55:13;;;;;;;;;;;;;;;25.84;53.65;100348.34;2333776;75;50022;-73
2023/06/30 05:58:15;;;;;;;;;;;;;;;25.84;53.66;100349.70;2326925;75;51308;-75
2023/06/30 06:01:17;;;;;;;;;;;;;;;25.88;53.66;100350.58;2337121;76;50547;-74
2023/06/30 06:04:19;;;;;;;;;;;;;;;25.90;53.52;100353.88;2337009;76;50197;-74
2023/06/30 06:07:21;;;;;;;;;;;;;;;25.88;53.55;100350.03;2318788;76;51620;-73
2023/06/30 06:10:22;;;;;;;;;;;;;;;25.82;53.49;100350.97;2297321;76;50520;-73
2023/06/30 06:13:39;;;;;;;;;;;;;;;25.77;53.50;100358.45;2318815;76;50326;-74
2023/06/30 06:16:44;;;;;;;;;;;;;;;25.76;53.51;100360.86;2332020;75;50423;-74
2023/06/30 06:19:44;;;;;;;;;;;;;;;25.73;53.56;100352.39;2319906;76;23224;-75
2023/06/30 06:22:46;;;;;;;;;;;;;;;25.73;53.40;100341.55;2326911;76;51521;-74
2023/06/30 06:25:48;;;;;;;;;;;;;;;25.72;53.42;100351.57;2326856;76;51387;-74
2023/06/30 06:28:49;;;;;;;;;;;;;;;25.71;53.47;100355.86;2336828;76;51481;-74
2023/06/30 06:31:52;;;;;;;;;;;;;;;25.69;53.40;100361.53;2326815;76;50579;-74
2023/06/30 06:34:54;;;;;;;;;;;;;;;25.70;53.27;100364.53;2336686;75;51336;-74
2023/06/30 06:37:55;;;;;;;;;;;;;;;25.71;53.24;100359.39;2326827;75;51427;-75
2023/06/30 06:40:57;;;;;;;;;;;;;;;25.70;53.16;100363.17;2337148;75;50291;-75
2023/06/30 06:43:59;;;;;;;;;;;;;;;25.69;53.11;100361.53;2326900;76;51110;-75
2023/06/30 06:47:19;;;;;;;;;;;;;;;25.70;53.08;100359.11;2325414;75;50243;-74
2023/06/30 06:50:20;;;;;;;;;;;;;;;25.70;53.02;100359.11;2339327;75;51517;-75
2023/06/30 06:53:23;;;;;;;;;;;;;;;25.69;52.94;100368.81;2336877;76;50264;-74
2023/06/30 06:56:25;;;;;;;;;;;;;;;25.69;52.92;100367.46;2326612;76;51207;-74
2023/06/30 06:59:27;;;;;;;;;;;;;;;25.67;52.82;100370.97;2337030;76;50249;-74
2023/06/30 07:02:28;;;;;;;;;;;;;;;25.66;52.75;100367.94;2326997;76;50257;-74
2023/06/30 07:05:34;;;;;;;;;;;;;;;25.63;52.77;100372.77;2300926;76;52204;-74
2023/06/30 07:08:39;;;;;;;;;;;;;;;25.64;52.79;100377.69;2336919;75;22240;-74
2023/06/30 07:11:36;;;;;;;;;;;;;;;25.61;52.73;100376.77;2337046;75;22426;-74
2023/06/30 07:14:38;;;;;;;;;;;;;;;25.60;52.72;100374.60;2326912;76;51406;-74
2023/06/30 07:17:40;;;;;;;;;;;;;;;25.60;52.68;100371.08;2339369;75;51486;-74
2023/06/30 07:20:41;;;;;;;;;;;;;;;25.59;52.60;100381.62;2294217;76;51169;-75
2023/06/30 07:23:44;;;;;;;;;;;;;;;25.57;52.61;100383.21;2309329;76;49955;-75
2023/06/30 07:26:46;;;;;;;;;;;;;;;25.58;52.47;100380.78;2333665;75;51535;-74
2023/06/30 07:29:49;;;;;;;;;;;;;;;25.57;52.36;100379.69;2309262;76;51365;-74
2023/06/30 07:32:51;;;;;;;;;;;;;;;25.56;52.33;100384.78;2309224;76;50875;-73
2023/06/30 07:35:52;;;;;;;;;;;;;;;25.57;52.23;100368.84;2295458;76;51462;-74
2023/06/30 07:38:54;;;;;;;;;;;;;;;25.56;52.19;100366.67;2325738;76;51363;-74
2023/06/30 07:41:55;;;;;;;;;;;;;;;25.55;52.10;100353.34;2326031;76;50241;-75
2023/06/30 07:44:57;;;;;;;;;;;;;;;25.55;52.06;100359.59;2294799;76;49994;-75
2023/06/30 07:47:59;;;;;;;;;;;;;;;25.54;52.03;100363.37;2287627;76;50184;-75
2023/06/30 07:51:00;;;;;;;;;;;;;;;25.52;52.07;100353.83;2293074;76;50549;-75
2023/06/30 07:54:02;;;;;;;;;;;;;;;25.52;52.02;100363.31;2294480;76;51491;-74
2023/06/30 07:57:03;;;;;;;;;;;;;;;25.50;51.99;100369.48;2294112;76;52308;-74
2023/06/30 08:00:06;;;;;;;;;;;;;;;25.49;51.91;100365.95;2294553;76;50384;-74
2023/06/30 08:03:08;;;;;;;;;;;;;;;25.49;51.85;100371.38;2325920;76;51558;-74
2023/06/30 08:06:09;;;;;;;;;;;;;;;25.50;51.83;100372.20;2294443;76;50573;-75
2023/06/30 08:09:11;;;;;;;;;;;;;;;25.50;51.73;100384.39;2294475;76;50923;-74
2023/06/30 08:12:12;;;;;;;;;;;;;;;25.49;51.72;100384.92;2294346;76;50684;-74
2023/06/30 08:15:14;;;;;;;;;;;;;;;25.47;51.75;100382.16;2325967;76;51522;-74
2023/06/30 08:18:16;;;;;;;;;;;;;;;25.47;51.67;100383.51;2321218;76;51309;-74
2023/06/30 08:21:17;;;;;;;;;;;;;;;25.47;51.65;100380.80;2267165;77;52345;-74
2023/06/30 08:24:19;;;;;;;;;;;;;;;25.47;51.62;100375.38;2288867;76;51377;-74
2023/06/30 08:27:21;;;;;;;;;;;;;;;25.46;51.63;100378.63;2288846;77;49957;-74
2023/06/30 08:30:23;;;;;;;;;;;;;;;25.47;51.61;100372.67;2288980;77;51530;-75
2023/06/30 08:33:29;;;;;;;;;;;;;;;25.46;51.58;100369.66;2258493;77;51306;-74
2023/06/30 08:36:31;;;;;;;;;;;;;;;25.46;51.49;100381.34;2288483;76;51654;-74
2023/06/30 08:39:33;;;;;;;;;;;;;;;25.49;51.38;100373.27;2258805;77;50293;-75
2023/06/30 08:42:36;;;;;;;;;;;;;;;25.49;51.38;100374.09;2258514;77;50573;-75
2023/06/30 08:45:39;;;;;;;;;;;;;;;25.51;51.35;100373.83;2289153;77;51484;-75
2023/06/30 08:48:40;;;;;;;;;;;;;;;25.52;51.30;100379.56;2279163;76;51755;-75
2023/06/30 08:51:42;;;;;;;;;;;;;;;25.53;51.29;100382.02;2262829;77;52465;-74
2023/06/30 08:54:43;;;;;;;;;;;;;;;25.54;51.24;100380.16;2289054;76;51458;-75
2023/06/30 08:57:45;;;;;;;;;;;;;;;25.55;51.24;100376.37;2288908;77;50694;-75
2023/06/30 09:00:47;;;;;;;;;;;;;;;25.56;51.28;100380.22;2258487;77;52610;-74
2023/06/30 09:03:48;;;;;;;;;;;;;;;25.56;51.36;100373.95;2258625;77;50062;-75
2023/06/30 09:06:50;;;;;;;;;;;;;;;25.55;51.44;100392.63;2288928;76;50359;-75
2023/06/30 09:09:53;;;;;;;;;;;;;;;25.55;51.41;100396.70;2289042;76;50329;-75
2023/06/30 09:12:55;;;;;;;;;;;;;;;25.53;51.44;100392.86;2258313;77;51728;-75
2023/06/30 09:15:57;;;;;;;;;;;;;;;25.51;51.46;100392.80;2289093;77;50267;-75
2023/06/30 09:18:58;;;;;;;;;;;;;;;25.53;51.42;100377.14;2305781;76;51315;-75
2023/06/30 09:22:00;;;;;;;;;;;;;;;25.51;51.54;100386.02;2259583;77;50674;-75
2023/06/30 09:25:02;;;;;;;;;;;;;;;25.50;51.55;100377.61;2258489;77;52479;-75
2023/06/30 09:28:05;;;;;;;;;;;;;;;25.53;51.42;100378.49;2288986;77;51391;-76
2023/06/30 09:31:08;;;;;;;;;;;;;;;25.54;51.41;100381.52;2288718;77;51668;-75
2023/06/30 09:34:10;;;;;;;;;;;;;;;25.51;51.42;100372.48;2291091;75;50380;-75
2023/06/30 09:37:13;;;;;;;;;;;;;;;25.52;51.38;100374.15;2318686;76;51307;-74
2023/06/30 09:40:15;;;;;;;;;;;;;;;25.50;51.45;100372.20;2296452;76;50189;-74
2023/06/30 09:43:17;;;;;;;;;;;;;;;25.51;51.39;100361.64;2318887;76;51353;-75
2023/06/30 09:46:20;;;;;;;;;;;;;;;25.52;51.38;100360.60;2296737;76;50444;-74
2023/06/30 09:49:24;;;;;;;;;;;;;;;25.48;51.45;100371.06;2316120;75;51157;-74
2023/06/30 09:52:25;;;;;;;;;;;;;;;25.48;51.40;100372.42;2296649;75;50744;-75
2023/06/30 09:55:27;;;;;;;;;;;;;;;25.48;51.45;100365.65;2273001;77;50331;-74
2023/06/30 09:58:28;;;;;;;;;;;;;;;25.46;51.47;100362.37;2272732;77;50598;-75
2023/06/30 10:01:31;;;;;;;;;;;;;;;25.47;51.42;100376.73;2248666;77;49341;-74
2023/06/30 10:04:33;;;;;;;;;;;;;;;25.45;51.55;100376.96;2273645;77;50653;-74
2023/06/30 10:07:35;;;;;;;;;;;;;;;25.43;51.66;100373.66;2276746;77;51462;-76
2023/06/30 10:10:36;;;;;;;;;;;;;;;25.46;51.57;100377.27;2273677;77;51431;-75
2023/06/30 10:13:38;;;;;;;;;;;;;;;25.49;51.75;100373.27;2272971;77;50017;-74
2023/06/30 10:16:40;;;;;;;;;;;;;;;25.51;52.02;100369.77;2298085;76;50307;-74
2023/06/30 10:19:42;;;;;;;;;;;;;;;25.52;52.17;100368.73;2337490;75;51474;-74
2023/06/30 10:22:43;;;;;;;;;;;;;;;25.49;52.23;100369.20;2360332;75;50430;-75
2023/06/30 10:25:45;;;;;;;;;;;;;;;25.49;52.18;100375.98;2334232;75;51092;-74
2023/06/30 10:28:46;;;;;;;;;;;;;;;25.49;52.24;100369.20;2357156;75;50194;-75
2023/06/30 10:31:48;;;;;;;;;;;;;;;25.49;52.24;100374.62;2357105;75;50007;-75
2023/06/30 10:34:50;;;;;;;;;;;;;;;25.50;52.28;100377.08;2358988;75;50299;-75
2023/06/30 10:37:52;;;;;;;;;;;;;;;25.50;52.36;100372.20;2335062;75;51614;-74
2023/06/30 10:41:01;;;;;;;;;;;;;;;25.55;53.68;100365.54;2364951;75;51541;-76
2023/06/30 10:44:05;;;;;;;;;;;;;;;25.48;55.13;100372.95;2349601;75;50539;-75
2023/06/30 10:47:07;;;;;;;;;;;;;;;25.31;57.37;100373.67;2363001;75;50844;-74
2023/06/30 10:50:14;;;;;;;;;;;;;;;25.24;57.66;100378.91;2318425;75;49555;-75
2023/06/30 10:53:22;;;;;;;;;;;;;;;25.22;57.49;100375.59;2332122;75;50675;-74
2023/06/30 10:56:22;;;;;;;;;;;;;;;25.13;58.34;100368.33;2361507;75;22331;-75
2023/06/30 10:59:24;;;;;;;;;;;;;;;25.16;58.21;100370.06;2364557;75;50624;-76
2023/06/30 11:02:26;;;;;;;;;;;;;;;25.17;58.20;100374.94;2331668;75;52244;-75
2023/06/30 11:05:29;;;;;;;;;;;;;;;25.07;58.36;100369.24;2332039;75;51592;-75
2023/06/30 11:08:30;;;;;;;;;;;;;;;25.01;58.86;100367.48;2364356;75;51515;-75
2023/06/30 11:11:48;;;;;;;;;;;;;;;24.92;58.57;100369.17;2364467;75;50184;-73
2023/06/30 11:14:59;;;;;;;;;;;;;;;24.88;58.60;100376.63;2326140;74;51166;-73
2023/06/30 11:18:01;;;;;;;;;;;;;;;24.93;58.21;100368.11;2298845;77;50285;-72
2023/06/30 11:21:06;;;;;;;;;;;;;;;25.08;57.84;100362.79;2260778;78;51464;-73
2023/06/30 11:24:15;;;;;;;;;;;;;;;25.12;57.79;100360.71;2261043;76;51503;-73
2023/06/30 11:27:17;;;;;;;;;;;;;;;25.16;57.46;100357.88;2217060;78;52542;-74
2023/06/30 11:30:19;;;;;;;;;;;;;;;25.15;57.29;100362.98;2242350;78;51465;-74
2023/06/30 11:33:20;;;;;;;;;;;;;;;25.18;57.11;100364.42;2309774;75;51422;-76
2023/06/30 11:36:22;;;;;;;;;;;;;;;25.19;56.67;100362.00;2277049;77;51682;-74
2023/06/30 11:39:23;;;;;;;;;;;;;;;25.18;56.49;100365.78;2307689;74;51087;-74
2023/06/30 11:42:25;;;;;;;;;;;;;;;25.19;56.33;100380.41;2309278;75;50327;-74
2023/06/30 11:45:29;;;;;;;;;;;;;;;25.20;56.15;100378.52;2334955;75;53628;-74
2023/06/30 11:48:32;;;;;;;;;;;;;;;25.20;55.98;100383.44;2334156;75;51514;-74
2023/06/30 11:51:33;;;;;;;;;;;;;;;25.20;55.80;100375.82;2307747;75;51785;-75
2023/06/30 11:54:36;;;;;;;;;;;;;;;25.20;55.74;100373.11;2337202;75;51469;-73
2023/06/30 11:57:38;;;;;;;;;;;;;;;25.20;55.52;100363.13;2323127;76;50421;-75
2023/06/30 12:00:43;;;;;;;;;;;;;;;25.26;55.09;100365.42;2323167;76;50772;-75
2023/06/30 12:03:45;;;;;;;;;;;;;;;25.31;54.93;100368.25;2312411;75;51195;-74
2023/06/30 12:06:46;;;;;;;;;;;;;;;25.32;54.77;100379.91;2306020;76;50544;-73
2023/06/30 12:09:49;;;;;;;;;;;;;;;25.33;54.85;100378.33;2296394;76;50671;-75
2023/06/30 12:12:59;;;;;;;;;;;;;;;25.33;54.71;100379.69;2321374;76;51595;-76
2023/06/30 12:15:58;;;;;;;;;;;;;;;25.36;54.92;100373.80;2323298;76;22383;-74
2023/06/30 12:18:59;;;;;;;;;;;;;;;25.34;54.98;100365.06;2296934;76;50717;-76
2023/06/30 12:22:03;;;;;;;;;;;;;;;25.36;55.06;100361.60;2296665;76;52049;-71
2023/06/30 12:25:07;;;;;;;;;;;;;;;25.36;55.07;100357.54;2323805;76;22366;-72
2023/06/30 12:28:09;;;;;;;;;;;;;;;25.35;55.19;100351.81;2323540;76;22789;-73
2023/06/30 12:31:11;;;;;;;;;;;;;;;25.36;55.17;100353.48;2296862;76;50300;-72
2023/06/30 12:34:15;;;;;;;;;;;;;;;25.40;54.91;100352.47;2336825;74;50674;-73
2023/06/30 12:37:19;;;;;;;;;;;;;;;25.40;54.83;100363.30;2336678;75;51568;-74
2023/06/30 12:40:22;;;;;;;;;;;;;;;25.39;55.04;100370.61;2337183;75;22592;-72
2023/06/30 12:43:24;;;;;;;;;;;;;;;25.37;55.16;100378.13;2334773;75;51565;-73
2023/06/30 12:46:26;;;;;;;;;;;;;;;25.38;55.24;100376.25;2340617;74;50732;-72
2023/06/30 12:49:30;;;;;;;;;;;;;;;25.39;54.97;100371.96;2337263;76;50237;-74
2023/06/30 12:52:32;;;;;;;;;;;;;;;25.40;54.86;100366.83;2297118;75;52533;-74
2023/06/30 12:55:33;;;;;;;;;;;;;;;25.39;54.66;100367.90;2344887;75;51542;-74
2023/06/30 12:58:35;;;;;;;;;;;;;;;25.36;54.25;100365.66;2320188;74;51369;-73
2023/06/30 13:01:36;;;;;;;;;;;;;;;25.36;54.11;100360.25;2344467;75;50239;-72
2023/06/30 13:04:38;;;;;;;;;;;;;;;25.36;53.96;100361.60;2320028;75;50784;-73
2023/06/30 13:07:40;;;;;;;;;;;;;;;25.35;53.77;100358.58;2300676;76;50285;-72
2023/06/30 13:10:41;;;;;;;;;;;;;;;25.35;53.53;100365.35;2333387;76;50539;-73
2023/06/30 13:13:43;;;;;;;;;;;;;;;25.34;53.56;100362.36;2333104;75;50282;-73
2023/06/30 13:16:44;;;;;;;;;;;;;;;25.34;53.51;100365.06;2301309;76;50285;-73
2023/06/30 13:19:47;;;;;;;;;;;;;;;25.34;53.49;100373.20;2301765;76;51270;-74
2023/06/30 13:22:48;;;;;;;;;;;;;;;25.34;53.49;100374.55;2333155;76;51522;-73
2023/06/30 13:25:50;;;;;;;;;;;;;;;25.33;53.46;100375.63;2301649;76;50627;-75
2023/06/30 13:28:51;;;;;;;;;;;;;;;25.33;53.44;100381.03;2301250;76;51178;-74
2023/06/30 13:31:53;;;;;;;;;;;;;;;25.33;53.43;100391.88;2332985;76;50204;-74
2023/06/30 13:34:55;;;;;;;;;;;;;;;25.33;53.41;100385.10;2337144;76;51542;-74
2023/06/30 13:37:57;;;;;;;;;;;;;;;25.34;53.43;100385.38;2332831;75;51294;-74
2023/06/30 13:40:58;;;;;;;;;;;;;;;25.33;53.39;100379.69;2354341;75;51405;-74
2023/06/30 13:44:00;;;;;;;;;;;;;;;25.34;53.42;100381.86;2354372;75;51358;-74
2023/06/30 13:47:01;;;;;;;;;;;;;;;25.34;53.36;100373.20;2363374;75;51396;-73
2023/06/30 13:50:03;;;;;;;;;;;;;;;25.34;53.36;100369.13;2354345;75;51389;-72
2023/06/30 13:53:05;;;;;;;;;;;;;;;25.35;53.32;100364.53;2336349;75;51651;-72
2023/06/30 13:56:06;;;;;;;;;;;;;;;25.35;53.28;100372.13;2354335;75;51365;-75
2023/06/30 13:59:08;;;;;;;;;;;;;;;25.34;53.28;100374.55;2354226;75;50612;-73
2023/06/30 14:02:09;;;;;;;;;;;;;;;25.33;53.29;100370.20;2363688;75;50351;-73
2023/06/30 14:05:11;;;;;;;;;;;;;;;25.32;53.27;100363.13;2354754;75;51466;-74
2023/06/30 14:08:13;;;;;;;;;;;;;;;25.32;53.27;100372.59;2338577;75;52063;-73
2023/06/30 14:11:15;;;;;;;;;;;;;;;25.33;53.21;100376.97;2338716;75;51380;-72
2023/06/30 14:14:16;;;;;;;;;;;;;;;25.33;53.21;100379.69;2356170;75;51476;-73
2023/06/30 14:17:18;;;;;;;;;;;;;;;25.33;53.15;100374.77;2311988;75;52260;-74
2023/06/30 14:20:19;;;;;;;;;;;;;;;25.34;53.20;100373.20;2338554;75;52059;-73
2023/06/30 14:23:21;;;;;;;;;;;;;;;25.32;53.18;100357.70;2338732;75;49901;-72
2023/06/30 14:26:25;;;;;;;;;;;;;;;25.32;53.17;100346.88;2356044;74;50228;-73
2023/06/30 14:29:27;;;;;;;;;;;;;;;25.33;53.14;100338.21;2339117;75;50033;-73
2023/06/30 14:32:29;;;;;;;;;;;;;;;25.34;53.02;100339.34;2356038;75;51356;-73
2023/06/30 14:35:30;;;;;;;;;;;;;;;25.35;52.99;100349.10;2355529;75;51459;-73
2023/06/30 14:38:32;;;;;;;;;;;;;;;25.33;52.97;100349.89;2363959;75;50319;-73
2023/06/30 14:41:34;;;;;;;;;;;;;;;25.34;52.98;100348.00;2307651;75;49513;-73
2023/06/30 14:44:35;;;;;;;;;;;;;;;25.35;52.95;100350.98;2333564;75;51222;-73
2023/06/30 14:47:37;;;;;;;;;;;;;;;25.35;52.94;100339.63;2333563;75;52450;-73
2023/06/30 14:50:38;;;;;;;;;;;;;;;25.38;52.86;100344.59;2366443;75;51413;-74
2023/06/30 14:53:40;;;;;;;;;;;;;;;25.38;52.75;100345.09;2333347;75;51108;-73
2023/06/30 14:56:42;;;;;;;;;;;;;;;25.39;52.74;100342.16;2366275;75;51469;-73
2023/06/30 14:59:43;;;;;;;;;;;;;;;25.39;52.74;100345.41;2366436;75;50185;-74
2023/06/30 15:02:45;;;;;;;;;;;;;;;25.38;52.78;100345.09;2333426;75;50289;-75
2023/06/30 15:05:46;;;;;;;;;;;;;;;25.37;52.75;100340.75;2305657;75;51309;-72
2023/06/30 15:08:48;;;;;;;;;;;;;;;25.36;52.76;100346.70;2341772;76;50592;-72
2023/06/30 15:11:50;;;;;;;;;;;;;;;25.37;52.74;100339.40;2341558;76;50292;-74
2023/06/30 15:14:51;;;;;;;;;;;;;;;25.37;52.71;100346.17;2341567;75;50216;-74
2023/06/30 15:17:53;;;;;;;;;;;;;;;25.36;52.74;100341.29;2306605;76;51386;-73
2023/06/30 15:20:54;;;;;;;;;;;;;;;25.37;52.72;100348.87;2341675;76;50268;-74
2023/06/30 15:23:56;;;;;;;;;;;;;;;25.36;52.73;100348.06;2341639;76;50599;-73
2023/06/30 15:26:58;;;;;;;;;;;;;;;25.36;52.69;100348.06;2341245;75;50173;-73
2023/06/30 15:29:59;;;;;;;;;;;;;;;25.36;52.60;100348.06;2281680;76;52286;-73
2023/06/30 15:33:08;;;;;;;;;;;;;;;25.36;52.58;100344.00;2303558;76;51528;-72